Time;durP1;ratioP1;P1;durP2;ratioP2;P2;SDS_P1;SDS_P2;PMS_P1;PMS_P2;Temp;Humidity;BMP_temperature;BMP_pressure;BME280_temperature;BME280_humidity;BME280_pressure;Samples;Min_cycle;Max_cycle;Signal;HPM_P1;HPM_P2
2021/10/20 00:01:38;;;;;;;9.05;7.60;;;9.70;99.90;;;;;;5069231;28;20251;-78
2021/10/20 00:04:05;;;;;;;8.23;7.30;;;9.70;99.90;;;;;;5071707;28;20238;-79
2021/10/20 00:06:32;;;;;;;9.07;7.45;;;9.70;99.90;;;;;;5059607;28;20624;-77
2021/10/20 00:08:59;;;;;;;7.97;7.18;;;9.70;99.90;;;;;;5060516;28;20210;-79
2021/10/20 00:11:26;;;;;;;8.88;7.55;;;9.70;99.90;;;;;;5061133;28;20735;-78
2021/10/20 00:13:53;;;;;;;7.65;6.93;;;9.60;99.90;;;;;;5061207;28;20203;-78
2021/10/20 00:16:22;;;;;;;8.07;7.28;;;9.60;99.90;;;;;;5061736;28;20267;-78
2021/10/20 00:18:50;;;;;;;8.30;7.38;;;9.60;99.90;;;;;;5062426;28;20239;-79
2021/10/20 00:21:21;;;;;;;7.85;7.05;;;9.70;99.90;;;;;;5062207;28;20234;-79
2021/10/20 00:23:48;;;;;;;9.68;8.00;;;9.70;99.90;;;;;;5062978;28;20205;-78
2021/10/20 00:26:15;;;;;;;12.95;7.30;;;9.70;99.90;;;;;;5063046;28;20208;-79
2021/10/20 00:28:42;;;;;;;8.52;7.05;;;9.60;99.90;;;;;;5060924;28;20241;-79
2021/10/20 00:31:09;;;;;;;7.68;6.68;;;9.60;99.90;;;;;;5062588;28;20631;-79
2021/10/20 00:33:37;;;;;;;8.07;7.03;;;9.60;99.90;;;;;;5064057;28;20220;-79
2021/10/20 00:36:05;;;;;;;7.15;6.18;;;9.50;99.90;;;;;;5064493;28;20235;-79
2021/10/20 00:38:32;;;;;;;8.85;6.20;;;9.50;99.90;;;;;;5068450;28;20213;-79
2021/10/20 00:40:59;;;;;;;8.70;7.30;;;9.50;99.90;;;;;;5079021;28;20205;-79
2021/10/20 00:43:26;;;;;;;7.05;6.28;;;9.50;99.90;;;;;;5078940;28;20244;-79
2021/10/20 00:45:53;;;;;;;5.90;5.35;;;9.40;99.90;;;;;;5079093;28;20191;-79
2021/10/20 00:48:20;;;;;;;9.27;6.72;;;9.40;99.90;;;;;;5078063;28;20212;-79
2021/10/20 00:50:48;;;;;;;8.07;5.47;;;9.30;99.90;;;;;;5077066;28;20232;-79
2021/10/20 00:53:16;;;;;;;6.28;5.45;;;9.30;99.90;;;;;;5078322;28;20199;-80
2021/10/20 00:55:43;;;;;;;8.57;5.65;;;9.30;99.90;;;;;;5078676;28;20184;-79
2021/10/20 00:58:10;;;;;;;6.28;5.68;;;9.40;99.90;;;;;;5078215;28;20219;-78
2021/10/20 01:00:37;;;;;;;6.10;5.50;;;9.40;99.90;;;;;;5077420;28;20205;-79
2021/10/20 01:03:04;;;;;;;5.63;5.03;;;9.40;99.90;;;;;;5070824;28;20211;-78
2021/10/20 01:05:31;;;;;;;7.32;5.93;;;9.40;99.90;;;;;;5056754;28;20285;-78
2021/10/20 01:08:00;;;;;;;6.55;5.70;;;9.40;99.90;;;;;;5056719;28;20226;-79
2021/10/20 01:10:27;;;;;;;6.55;5.35;;;9.40;99.90;;;;;;5055440;28;20329;-78
2021/10/20 01:12:54;;;;;;;6.43;5.80;;;9.40;99.90;;;;;;5054915;28;20203;-78
2021/10/20 01:15:23;;;;;;;5.75;5.10;;;9.40;99.90;;;;;;5055014;28;20298;-78
2021/10/20 01:17:51;;;;;;;8.27;4.90;;;9.50;99.90;;;;;;5062885;28;20244;-78
2021/10/20 01:20:19;;;;;;;4.65;4.22;;;9.40;99.90;;;;;;5068300;28;20299;-78
2021/10/20 01:22:48;;;;;;;6.75;5.50;;;9.40;99.90;;;;;;5055959;28;20584;-78
2021/10/20 01:25:15;;;;;;;6.13;4.78;;;9.40;99.90;;;;;;5056010;28;20743;-79
2021/10/20 01:27:42;;;;;;;6.63;5.50;;;9.40;99.90;;;;;;5056657;28;20311;-77
2021/10/20 01:30:10;;;;;;;5.07;4.60;;;9.40;99.90;;;;;;5071022;28;20311;-78
2021/10/20 01:32:37;;;;;;;7.65;5.70;;;9.40;99.90;;;;;;5076324;28;20251;-78
2021/10/20 01:35:04;;;;;;;5.90;5.30;;;9.50;99.90;;;;;;5076468;28;20207;-78
2021/10/20 01:37:31;;;;;;;6.45;5.80;;;9.50;99.90;;;;;;5076555;28;20251;-79
2021/10/20 01:40:00;;;;;;;5.63;4.88;;;9.40;99.90;;;;;;5074565;28;20194;-79
2021/10/20 01:42:29;;;;;;;5.80;5.15;;;9.50;99.90;;;;;;5068590;28;20301;-78
2021/10/20 01:44:56;;;;;;;5.43;4.93;;;9.50;99.90;;;;;;5068336;28;20740;-78
2021/10/20 01:47:23;;;;;;;6.63;5.28;;;9.50;99.90;;;;;;5067318;28;20601;-78
2021/10/20 01:49:50;;;;;;;6.45;4.93;;;9.50;99.90;;;;;;5066959;28;20214;-77
2021/10/20 01:52:17;;;;;;;7.55;5.57;;;9.50;99.90;;;;;;5058830;28;20703;-78
2021/10/20 01:54:44;;;;;;;6.00;4.95;;;9.50;99.90;;;;;;5056581;28;20213;-77
2021/10/20 01:57:12;;;;;;;6.15;4.88;;;9.50;99.90;;;;;;5056775;28;20286;-78
2021/10/20 01:59:39;;;;;;;5.60;4.80;;;9.50;99.90;;;;;;5057262;28;20242;-78
2021/10/20 02:02:16;;;;;;;6.25;5.63;;;9.60;99.90;;;;;;5056624;28;20239;-78
2021/10/20 02:04:42;;;;;;;5.05;4.55;;;9.60;99.90;;;;;;5057488;28;20278;-77
2021/10/20 02:07:09;;;;;;;5.88;5.20;;;9.60;99.90;;;;;;5055519;28;20233;-78
2021/10/20 02:09:36;;;;;;;5.32;4.40;;;9.50;99.90;;;;;;5056208;28;20210;-78
2021/10/20 02:12:03;;;;;;;5.60;5.00;;;9.60;99.90;;;;;;5056527;28;20693;-78
2021/10/20 02:14:31;;;;;;;5.85;4.65;;;9.60;99.90;;;;;;5056366;28;20206;-78
2021/10/20 02:16:58;;;;;;;4.88;4.32;;;9.60;99.90;;;;;;5055785;28;20586;-79
2021/10/20 02:19:27;;;;;;;6.65;4.75;;;9.60;99.90;;;;;;5057695;28;20202;-79
2021/10/20 02:21:54;;;;;;;5.15;4.65;;;9.60;99.90;;;;;;5056476;28;20231;-78
2021/10/20 02:24:22;;;;;;;5.78;4.95;;;9.60;99.90;;;;;;5059856;28;20211;-78
2021/10/20 02:26:49;;;;;;;5.57;4.95;;;9.50;99.90;;;;;;5064992;28;20234;-78
2021/10/20 02:29:16;;;;;;;5.10;4.38;;;9.50;99.90;;;;;;5063763;28;20218;-78
2021/10/20 02:31:46;;;;;;;6.35;4.53;;;9.50;99.90;;;;;;5060728;28;20318;-78
2021/10/20 02:34:14;;;;;;;5.50;5.00;;;9.40;99.90;;;;;;5054820;28;20210;-78
2021/10/20 02:36:41;;;;;;;5.70;4.53;;;9.40;99.90;;;;;;5055053;28;20706;-78
2021/10/20 02:39:08;;;;;;;5.28;4.75;;;9.50;99.90;;;;;;5054577;28;20467;-78
2021/10/20 02:41:35;;;;;;;5.13;4.43;;;9.50;99.90;;;;;;5054815;28;20199;-78
2021/10/20 02:44:02;;;;;;;6.88;5.35;;;9.50;99.90;;;;;;5054295;28;20702;-78
2021/10/20 02:46:29;;;;;;;5.72;5.13;;;9.40;99.90;;;;;;5059856;28;20274;-78
2021/10/20 02:48:57;;;;;;;6.07;5.03;;;9.40;99.90;;;;;;5056162;28;20221;-78
2021/10/20 02:51:24;;;;;;;6.15;4.45;;;9.40;99.90;;;;;;5059019;28;20606;-78
2021/10/20 02:53:51;;;;;;;5.82;4.72;;;9.40;99.90;;;;;;5058781;28;20214;-78
2021/10/20 02:56:18;;;;;;;6.10;5.15;;;9.40;99.90;;;;;;5056269;28;20626;-78
2021/10/20 02:58:45;;;;;;;5.32;4.82;;;9.40;99.90;;;;;;5058380;28;20223;-78
2021/10/20 03:01:12;;;;;;;6.70;6.00;;;9.30;99.90;;;;;;5058186;28;20231;-78
2021/10/20 03:03:39;;;;;;;7.30;5.00;;;9.30;99.90;;;;;;5058378;28;20215;-77
2021/10/20 03:06:07;;;;;;;7.40;5.10;;;9.30;99.90;;;;;;5057732;28;20210;-77
2021/10/20 03:08:34;;;;;;;5.88;5.20;;;9.30;99.90;;;;;;5059158;28;20265;-79
2021/10/20 03:11:01;;;;;;;5.15;4.63;;;9.30;99.90;;;;;;5058915;28;20333;-78
2021/10/20 03:13:28;;;;;;;5.38;4.88;;;9.30;99.90;;;;;;5059160;28;20210;-78
2021/10/20 03:15:55;;;;;;;6.80;4.53;;;9.30;99.90;;;;;;5058907;28;20206;-78
2021/10/20 03:18:21;;;;;;;7.32;4.55;;;9.30;99.90;;;;;;5059425;28;20238;-78
2021/10/20 03:20:48;;;;;;;6.18;4.63;;;9.20;99.90;;;;;;5067573;28;20554;-79
2021/10/20 03:23:17;;;;;;;5.30;4.50;;;9.20;99.90;;;;;;5056043;28;20725;-78
2021/10/20 03:25:43;;;;;;;5.35;4.85;;;9.20;99.90;;;;;;5058166;28;20210;-78
2021/10/20 03:28:10;;;;;;;7.28;5.00;;;9.10;99.90;;;;;;5062106;28;20265;-79
2021/10/20 03:30:37;;;;;;;6.00;5.20;;;9.10;99.90;;;;;;5056418;28;20233;-78
2021/10/20 03:33:04;;;;;;;5.63;4.70;;;9.10;99.90;;;;;;5057269;28;20210;-78
2021/10/20 03:35:31;;;;;;;6.97;4.90;;;9.00;99.90;;;;;;5057367;28;20670;-78
2021/10/20 03:37:58;;;;;;;5.93;5.05;;;9.00;99.90;;;;;;5058110;28;20254;-78
2021/10/20 03:40:26;;;;;;;5.13;4.40;;;9.10;99.90;;;;;;5057926;28;20681;-77
2021/10/20 03:42:53;;;;;;;6.55;5.28;;;9.00;99.90;;;;;;5055831;28;20230;-78
2021/10/20 03:45:20;;;;;;;6.07;5.13;;;9.10;99.90;;;;;;5056133;28;20357;-78
2021/10/20 03:47:47;;;;;;;6.25;4.90;;;9.20;99.90;;;;;;5056615;28;20250;-78
2021/10/20 03:50:14;;;;;;;6.10;5.28;;;9.20;99.90;;;;;;5053981;28;20217;-79
2021/10/20 03:52:40;;;;;;;5.15;4.65;;;9.20;99.90;;;;;;5055564;28;20213;-78
2021/10/20 03:55:08;;;;;;;5.88;4.40;;;9.20;99.90;;;;;;5055906;28;20202;-78
2021/10/20 03:57:38;;;;;;;14.15;6.43;;;9.20;99.90;;;;;;5057019;28;20222;-78
2021/10/20 04:00:07;;;;;;;4.82;4.32;;;9.10;99.90;;;;;;5054815;28;20678;-78
2021/10/20 04:02:34;;;;;;;5.40;4.82;;;9.10;99.90;;;;;;5055748;28;20582;-78
2021/10/20 04:05:01;;;;;;;6.25;4.95;;;9.10;99.90;;;;;;5047792;28;20257;-79
2021/10/20 04:07:28;;;;;;;5.60;4.78;;;9.10;99.90;;;;;;5036182;28;20227;-80
2021/10/20 04:09:55;;;;;;;6.13;4.63;;;9.10;99.90;;;;;;5041934;28;20274;-79
2021/10/20 04:12:22;;;;;;;6.40;5.10;;;9.10;99.90;;;;;;5039968;28;20243;-78
2021/10/20 04:14:50;;;;;;;5.40;4.90;;;9.10;99.90;;;;;;5047916;28;20222;-77
2021/10/20 04:17:16;;;;;;;6.50;5.65;;;9.10;99.90;;;;;;5053301;28;20239;-77
2021/10/20 04:19:47;;;;;;;6.45;5.72;;;9.10;99.90;;;;;;5053972;28;20197;-77
2021/10/20 04:22:14;;;;;;;5.85;5.35;;;9.10;99.90;;;;;;5053135;28;20247;-77
2021/10/20 04:24:40;;;;;;;5.20;4.70;;;9.10;99.90;;;;;;5062043;28;20198;-76
2021/10/20 04:27:08;;;;;;;8.23;4.63;;;9.00;99.90;;;;;;5057243;28;20492;-77
2021/10/20 04:29:35;;;;;;;6.75;4.72;;;9.00;99.90;;;;;;5056645;28;20210;-78
2021/10/20 04:32:03;;;;;;;5.28;4.78;;;8.90;99.90;;;;;;5061934;28;20276;-77
2021/10/20 04:34:30;;;;;;;8.43;5.55;;;8.80;99.90;;;;;;5065949;28;20322;-78
2021/10/20 04:37:04;;;;;;;6.05;5.45;;;8.80;99.90;;;;;;5064099;28;20254;-83
2021/10/20 04:39:31;;;;;;;5.28;4.78;;;8.80;99.90;;;;;;5062661;28;20242;-78
2021/10/20 04:41:57;;;;;;;10.15;5.53;;;8.80;99.90;;;;;;5058455;28;20688;-78
2021/10/20 04:44:24;;;;;;;7.90;6.15;;;8.80;99.90;;;;;;5059214;28;20599;-78
2021/10/20 04:46:51;;;;;;;6.53;5.38;;;8.80;99.90;;;;;;5064383;28;20265;-78
2021/10/20 04:49:20;;;;;;;7.07;5.57;;;8.70;99.90;;;;;;5063465;28;20213;-77
2021/10/20 04:51:47;;;;;;;7.97;5.88;;;8.70;99.90;;;;;;5067761;28;20250;-79
2021/10/20 04:54:14;;;;;;;7.65;5.95;;;8.70;99.90;;;;;;5066699;28;20214;-78
2021/10/20 04:56:41;;;;;;;5.13;4.63;;;8.70;99.90;;;;;;5072041;28;20225;-78
2021/10/20 04:59:07;;;;;;;6.90;5.55;;;8.70;99.90;;;;;;5072671;28;20210;-78
2021/10/20 05:01:34;;;;;;;9.95;6.30;;;8.60;99.90;;;;;;5062829;28;20238;-78
2021/10/20 05:04:01;;;;;;;7.07;6.13;;;8.60;99.90;;;;;;5059697;28;20241;-78
2021/10/20 05:06:29;;;;;;;8.77;5.35;;;8.50;99.90;;;;;;5066080;28;20277;-78
2021/10/20 05:08:56;;;;;;;7.53;6.13;;;8.50;99.90;;;;;;5063573;28;20218;-78
2021/10/20 05:11:23;;;;;;;6.40;5.80;;;8.40;99.90;;;;;;5062131;28;20329;-79
2021/10/20 05:13:50;;;;;;;7.57;6.22;;;8.40;99.90;;;;;;5062540;28;20209;-78
2021/10/20 05:16:17;;;;;;;9.80;6.35;;;8.40;99.90;;;;;;5059931;28;20724;-77
2021/10/20 05:18:44;;;;;;;6.60;5.53;;;8.40;99.90;;;;;;5061192;28;20265;-78
2021/10/20 05:21:11;;;;;;;6.82;5.60;;;8.40;99.90;;;;;;5072286;28;20199;-78
2021/10/20 05:23:39;;;;;;;8.48;5.57;;;8.30;99.90;;;;;;5076106;28;20194;-78
2021/10/20 05:26:06;;;;;;;8.30;6.55;;;8.30;99.90;;;;;;5066445;28;20238;-77
2021/10/20 05:28:33;;;;;;;8.10;6.30;;;8.20;99.90;;;;;;5062547;28;20233;-78
2021/10/20 05:31:00;;;;;;;6.45;5.85;;;8.20;99.90;;;;;;5064128;28;20222;-78
2021/10/20 05:33:27;;;;;;;6.82;6.13;;;8.20;99.90;;;;;;5063317;28;20618;-77
2021/10/20 05:35:53;;;;;;;6.35;5.75;;;8.30;99.90;;;;;;5062900;28;20207;-78
2021/10/20 05:38:20;;;;;;;8.07;6.05;;;8.30;99.90;;;;;;5061596;28;20662;-78
2021/10/20 05:40:50;;;;;;;7.82;6.07;;;8.30;99.90;;;;;;5061229;28;20207;-81
2021/10/20 05:43:19;;;;;;;6.72;5.60;;;8.30;99.90;;;;;;5064046;28;20724;-78
2021/10/20 05:45:45;;;;;;;6.85;5.75;;;8.30;99.90;;;;;;5067040;28;20247;-78
2021/10/20 05:48:12;;;;;;;6.70;5.80;;;8.30;99.90;;;;;;5059984;28;20226;-78
2021/10/20 05:50:39;;;;;;;8.23;5.75;;;8.30;99.90;;;;;;5060765;28;20245;-78
2021/10/20 05:53:06;;;;;;;6.55;5.63;;;8.30;99.90;;;;;;5060051;28;20221;-79
2021/10/20 05:55:33;;;;;;;9.98;5.47;;;8.40;99.90;;;;;;5061451;28;20301;-78
2021/10/20 05:58:01;;;;;;;6.57;5.60;;;8.40;99.90;;;;;;5059198;28;20234;-77
2021/10/20 06:00:28;;;;;;;8.43;6.45;;;8.40;99.90;;;;;;5058125;28;20212;-78
2021/10/20 06:02:55;;;;;;;7.93;5.80;;;8.40;99.90;;;;;;5063283;28;20297;-78
2021/10/20 06:05:22;;;;;;;10.63;6.28;;;8.40;99.90;;;;;;5068731;28;20233;-79
2021/10/20 06:07:50;;;;;;;6.53;5.93;;;8.40;99.90;;;;;;5071257;28;20281;-77
2021/10/20 06:10:18;;;;;;;7.05;6.35;;;8.40;99.90;;;;;;5074559;28;20217;-78
2021/10/20 06:12:45;;;;;;;6.55;5.93;;;8.40;99.90;;;;;;5070242;28;20257;-78
2021/10/20 06:15:14;;;;;;;8.70;5.80;;;8.50;99.90;;;;;;5070355;28;20231;-77
2021/10/20 06:17:40;;;;;;;8.40;6.38;;;8.50;99.90;;;;;;5060832;28;20230;-78
2021/10/20 06:20:09;;;;;;;6.90;5.40;;;8.50;99.90;;;;;;5063054;28;20301;-77
2021/10/20 06:22:37;;;;;;;8.18;6.80;;;8.60;99.90;;;;;;5066377;28;20198;-79
2021/10/20 06:25:05;;;;;;;7.07;5.25;;;8.60;99.90;;;;;;5062563;28;20215;-78
2021/10/20 06:27:32;;;;;;;8.50;6.50;;;8.60;99.90;;;;;;5067132;28;20317;-78
2021/10/20 06:29:58;;;;;;;9.55;5.55;;;8.70;99.90;;;;;;5064859;28;20234;-78
2021/10/20 06:32:27;;;;;;;9.60;5.53;;;8.70;99.90;;;;;;5068257;28;20261;-78
2021/10/20 06:34:54;;;;;;;10.70;6.35;;;8.70;99.90;;;;;;5067952;28;20217;-78
2021/10/20 06:37:21;;;;;;;10.10;5.90;;;8.80;99.90;;;;;;5066378;28;20227;-78
2021/10/20 06:39:48;;;;;;;7.70;5.35;;;8.90;99.90;;;;;;5060231;28;20776;-78
2021/10/20 06:42:14;;;;;;;7.43;5.72;;;8.90;99.90;;;;;;5065010;28;20234;-78
2021/10/20 06:44:41;;;;;;;5.28;4.78;;;9.10;99.90;;;;;;5072887;28;20206;-78
2021/10/20 06:47:08;;;;;;;7.00;5.70;;;9.20;99.90;;;;;;5063444;28;20234;-77
2021/10/20 06:49:36;;;;;;;7.22;5.00;;;9.30;99.90;;;;;;5063765;28;20280;-79
2021/10/20 06:52:04;;;;;;;5.63;5.13;;;9.40;99.90;;;;;;5062174;28;20609;-78
2021/10/20 06:54:31;;;;;;;7.68;5.70;;;9.60;99.90;;;;;;5067763;28;20221;-79
2021/10/20 06:56:57;;;;;;;6.47;5.13;;;9.70;99.90;;;;;;5066448;28;20318;-79
2021/10/20 06:59:24;;;;;;;7.30;5.35;;;9.80;99.90;;;;;;5063763;28;20228;-79
2021/10/20 07:01:51;;;;;;;10.80;5.07;;;9.90;99.90;;;;;;5070811;28;20203;-79
2021/10/20 07:04:19;;;;;;;6.68;4.95;;;10.00;99.90;;;;;;5065652;28;20196;-80
2021/10/20 07:06:50;;;;;;;5.60;5.10;;;10.10;98.90;;;;;;5066536;28;20261;-80
2021/10/20 07:09:16;;;;;;;7.15;5.40;;;10.30;97.00;;;;;;5066629;28;20215;-79
2021/10/20 07:11:43;;;;;;;7.57;5.20;;;10.40;95.80;;;;;;5068969;28;20675;-80
2021/10/20 07:14:10;;;;;;;5.90;4.97;;;10.50;95.10;;;;;;5071096;28;20277;-79
2021/10/20 07:16:39;;;;;;;6.88;5.22;;;10.70;93.90;;;;;;5067356;28;20212;-79
2021/10/20 07:19:07;;;;;;;9.40;4.57;;;10.80;93.40;;;;;;5068291;28;20249;-78
2021/10/20 07:21:34;;;;;;;6.60;4.60;;;10.90;92.20;;;;;;5067477;28;20206;-77
2021/10/20 07:24:03;;;;;;;5.75;5.25;;;11.10;91.70;;;;;;5062834;28;20296;-79
2021/10/20 07:26:31;;;;;;;7.00;4.80;;;11.20;90.70;;;;;;5070890;28;20213;-79
2021/10/20 07:28:58;;;;;;;6.18;4.93;;;11.40;90.00;;;;;;5068598;28;20210;-79
2021/10/20 07:31:29;;;;;;;4.85;4.35;;;11.50;88.70;;;;;;5066032;28;20190;-79
2021/10/20 07:33:56;;;;;;;5.18;4.68;;;11.70;86.70;;;;;;5072759;28;20195;-79
2021/10/20 07:36:23;;;;;;;6.47;4.50;;;11.80;85.50;;;;;;5077579;28;20190;-79
2021/10/20 07:38:50;;;;;;;6.43;4.30;;;11.90;83.50;;;;;;5075083;28;20254;-78
2021/10/20 07:41:18;;;;;;;4.88;4.30;;;12.10;81.50;;;;;;5074268;28;20199;-78
2021/10/20 07:43:45;;;;;;;6.00;5.50;;;12.20;80.00;;;;;;5073405;28;20266;-79
2021/10/20 07:46:12;;;;;;;5.45;4.50;;;12.40;78.50;;;;;;5077608;28;20212;-78
2021/10/20 07:48:39;;;;;;;9.35;4.30;;;12.60;77.60;;;;;;5076517;28;20261;-79
2021/10/20 07:51:06;;;;;;;5.40;4.65;;;12.80;76.30;;;;;;5076696;28;20198;-80
2021/10/20 07:53:33;;;;;;;6.50;4.38;;;13.00;73.10;;;;;;5074403;28;20267;-80
2021/10/20 07:56:00;;;;;;;8.52;5.05;;;13.20;72.80;;;;;;5077020;28;20198;-79
2021/10/20 07:58:28;;;;;;;7.40;5.05;;;13.40;69.50;;;;;;5078790;28;20240;-82
2021/10/20 08:00:55;;;;;;;7.07;4.82;;;13.60;68.30;;;;;;5079422;28;20207;-80
2021/10/20 08:03:22;;;;;;;7.25;4.80;;;13.70;66.50;;;;;;5078998;28;20201;-79
2021/10/20 08:05:49;;;;;;;7.43;5.10;;;13.80;66.40;;;;;;5074993;28;20206;-79
2021/10/20 08:08:16;;;;;;;5.10;4.55;;;13.80;65.30;;;;;;5067132;28;20988;-80
2021/10/20 08:10:42;;;;;;;5.85;4.50;;;13.90;64.70;;;;;;5063658;28;20202;-82
2021/10/20 08:13:09;;;;;;;4.70;3.97;;;14.00;65.10;;;;;;5072519;28;20225;-82
2021/10/20 08:15:39;;;;;;;6.50;4.90;;;14.20;65.30;;;;;;5079865;28;20433;-82
2021/10/20 08:18:06;;;;;;;4.70;4.30;;;14.20;65.00;;;;;;5079426;28;20508;-80
2021/10/20 08:20:36;;;;;;;7.35;4.90;;;14.30;64.60;;;;;;5079124;28;20222;-80
2021/10/20 08:23:06;;;;;;;6.90;5.23;;;14.50;64.50;;;;;;5076431;28;20212;-80
2021/10/20 08:25:34;;;;;;;6.60;4.93;;;14.70;63.00;;;;;;5069315;28;20450;-79
2021/10/20 08:28:02;;;;;;;6.63;4.73;;;14.90;63.10;;;;;;5064895;28;20289;-80
2021/10/20 08:30:29;;;;;;;4.80;4.30;;;15.00;63.20;;;;;;5067950;28;20441;-80
2021/10/20 08:32:58;;;;;;;7.50;4.80;;;15.10;63.30;;;;;;5062620;28;21089;-81
2021/10/20 08:35:25;;;;;;;8.00;5.03;;;15.30;63.10;;;;;;5064800;28;20443;-80
2021/10/20 08:37:56;;;;;;;5.30;4.80;;;15.50;61.70;;;;;;5066900;28;20599;-80
2021/10/20 08:40:25;;;;;;;6.37;4.00;;;15.50;61.00;;;;;;5059997;28;20464;-80
2021/10/20 08:42:52;;;;;;;7.30;4.60;;;15.50;61.50;;;;;;5060452;28;20433;-79
2021/10/20 08:45:19;;;;;;;6.37;4.60;;;15.60;61.40;;;;;;5061298;28;20562;-81
2021/10/20 08:47:52;;;;;;;9.63;5.67;;;15.70;61.10;;;;;;5060901;28;20454;-80
2021/10/20 08:50:24;;;;;;;6.57;4.97;;;15.80;61.30;;;;;;5064690;28;20452;-81
2021/10/20 08:52:54;;;;;;;7.73;4.83;;;16.00;60.80;;;;;;5062949;28;20531;-80
2021/10/20 08:55:22;;;;;;;5.77;4.40;;;16.20;59.20;;;;;;5062301;28;20449;-81
2021/10/20 08:57:53;;;;;;;7.50;4.87;;;16.20;59.10;;;;;;5067967;28;20472;-80
2021/10/20 09:00:21;;;;;;;6.70;4.70;;;16.40;57.90;;;;;;5069928;28;20437;-79
2021/10/20 09:02:49;;;;;;;10.30;5.23;;;16.50;57.10;;;;;;5068455;28;20502;-80
2021/10/20 09:05:18;;;;;;;6.73;4.57;;;16.30;57.00;;;;;;5070839;28;20462;-80
2021/10/20 09:07:49;;;;;;;4.37;3.97;;;16.20;58.40;;;;;;5072190;28;20564;-81
2021/10/20 09:10:16;;;;;;;4.97;3.93;;;16.40;57.60;;;;;;5070927;28;20453;-79
2021/10/20 09:12:44;;;;;;;6.70;4.60;;;16.60;56.70;;;;;;5069834;28;20480;-80
2021/10/20 09:15:17;;;;;;;8.67;4.87;;;16.90;55.70;;;;;;5069807;28;20499;-79
2021/10/20 09:17:47;;;;;;;4.67;4.23;;;17.00;55.80;;;;;;5066980;28;20487;-80
2021/10/20 09:20:26;;;;;;;8.17;4.83;;;17.00;55.80;;;;;;5063749;28;20469;-79
2021/10/20 09:22:58;;;;;;;4.70;4.30;;;16.80;56.60;;;;;;5061975;28;20968;-79
2021/10/20 09:25:25;;;;;;;6.17;4.67;;;16.80;57.20;;;;;;5060749;28;20456;-80
2021/10/20 09:27:53;;;;;;;5.83;4.77;;;17.10;57.00;;;;;;5060804;28;20476;-80
2021/10/20 09:30:21;;;;;;;5.80;4.30;;;17.30;56.10;;;;;;5061086;28;20532;-79
2021/10/20 09:32:50;;;;;;;5.87;4.67;;;17.40;56.20;;;;;;5071117;28;20488;-80
2021/10/20 09:35:18;;;;;;;6.50;3.97;;;17.60;54.90;;;;;;5074894;28;20467;-82
2021/10/20 09:37:47;;;;;;;4.83;4.30;;;17.60;55.20;;;;;;5075136;28;20490;-78
2021/10/20 09:40:15;;;;;;;4.87;4.20;;;17.50;54.50;;;;;;5075381;28;20433;-78
2021/10/20 09:42:46;;;;;;;9.00;3.97;;;17.80;54.50;;;;;;5076351;28;20564;-78
2021/10/20 09:45:17;;;;;;;4.27;3.70;;;18.10;54.40;;;;;;5072969;28;20483;-80
2021/10/20 09:47:45;;;;;;;4.33;3.93;;;18.10;53.60;;;;;;5068439;28;20517;-80
2021/10/20 09:50:14;;;;;;;4.60;4.20;;;18.20;54.20;;;;;;5067074;28;20456;-80
2021/10/20 09:52:48;;;;;;;5.23;3.50;;;18.30;54.70;;;;;;5067563;28;20492;-80
2021/10/20 09:55:25;;;;;;;5.07;3.80;;;18.30;54.20;;;;;;5063063;28;20449;-79
2021/10/20 09:57:55;;;;;;;4.07;3.63;;;18.30;54.20;;;;;;5060014;28;20548;-78
2021/10/20 10:00:22;;;;;;;4.77;3.70;;;18.40;54.00;;;;;;5057145;28;20527;-78
2021/10/20 10:02:49;;;;;;;3.67;3.37;;;18.60;53.60;;;;;;5064277;28;20481;-79
2021/10/20 10:05:17;;;;;;;4.10;3.73;;;18.90;52.60;;;;;;5071367;28;20431;-79
2021/10/20 10:07:44;;;;;;;3.47;3.17;;;19.10;52.30;;;;;;5070380;28;20470;-79
2021/10/20 10:10:11;;;;;;;3.37;3.07;;;19.20;51.30;;;;;;5054328;28;20454;-78
2021/10/20 10:12:41;;;;;;;4.03;3.63;;;19.30;50.70;;;;;;5055816;28;20455;-79
2021/10/20 10:15:11;;;;;;;3.73;3.10;;;19.50;50.10;;;;;;5057878;28;20507;-79
2021/10/20 10:17:41;;;;;;;4.07;3.53;;;19.50;49.60;;;;;;5054809;28;20508;-79
2021/10/20 10:20:18;;;;;;;4.87;3.87;;;19.50;50.00;;;;;;5057042;28;20568;-79
2021/10/20 10:22:51;;;;;;;5.40;3.40;;;19.50;49.50;;;;;;5069345;28;20465;-78
2021/10/20 10:25:31;;;;;;;4.17;3.10;;;19.70;49.40;;;;;;5068180;28;20945;-79
2021/10/20 10:28:04;;;;;;;3.17;2.87;;;19.80;48.70;;;;;;5055997;28;20568;-78
2021/10/20 10:30:34;;;;;;;4.43;3.50;;;19.90;49.10;;;;;;5057396;28;20436;-78
2021/10/20 10:33:03;;;;;;;7.03;3.63;;;20.00;48.90;;;;;;5060281;28;20480;-79
2021/10/20 10:35:35;;;;;;;3.20;2.90;;;20.00;48.90;;;;;;5060655;28;20453;-79
2021/10/20 10:38:07;;;;;;;3.57;3.30;;;20.20;49.00;;;;;;5060543;28;20542;-79
2021/10/20 10:40:35;;;;;;;4.70;3.43;;;20.40;48.80;;;;;;5064280;28;20463;-78
2021/10/20 10:43:11;;;;;;;3.10;2.90;;;20.50;47.80;;;;;;5073797;28;20514;-79
2021/10/20 10:45:48;;;;;;;6.53;3.77;;;20.60;47.10;;;;;;5074644;28;20452;-80
2021/10/20 10:48:15;;;;;;;4.00;3.40;;;20.80;47.00;;;;;;5069041;28;20469;-79
2021/10/20 10:50:49;;;;;;;2.90;2.57;;;20.80;46.20;;;;;;5066818;28;20452;-78
2021/10/20 10:53:30;;;;;;;3.40;3.10;;;21.00;45.90;;;;;;5069220;28;20492;-78
2021/10/20 10:56:07;;;;;;;3.00;2.60;;;21.10;45.80;;;;;;5071566;28;20460;-80
2021/10/20 10:59:00;;;;;;;3.57;3.27;;;21.20;44.30;;;;;;5066614;28;20547;-79
2021/10/20 11:01:43;;;;;;;2.83;2.50;;;21.40;43.50;;;;;;5071803;28;20512;-79
2021/10/20 11:04:17;;;;;;;3.43;2.83;;;21.60;42.90;;;;;;5068875;28;20436;-78
2021/10/20 11:06:45;;;;;;;3.03;2.70;;;21.90;42.40;;;;;;5070068;28;20486;-79
2021/10/20 11:09:15;;;;;;;3.77;2.80;;;22.30;42.00;;;;;;5072356;28;20438;-79
2021/10/20 11:11:48;;;;;;;3.00;2.70;;;22.40;41.00;;;;;;5068623;28;20495;-78
2021/10/20 11:14:17;;;;;;;3.07;2.80;;;22.50;41.10;;;;;;5071957;28;20511;-79
2021/10/20 11:16:48;;;;;;;3.73;3.30;;;22.50;41.10;;;;;;5076470;28;20435;-79
2021/10/20 11:19:15;;;;;;;4.13;2.80;;;22.50;40.90;;;;;;5076807;28;20433;-78
2021/10/20 11:21:42;;;;;;;4.77;2.57;;;22.50;40.00;;;;;;5077786;28;20435;-79
2021/10/20 11:24:09;;;;;;;2.93;2.63;;;22.70;40.00;;;;;;5070309;28;20416;-79
2021/10/20 11:26:38;;;;;;;4.00;2.53;;;22.70;39.20;;;;;;5078353;28;20472;-78
2021/10/20 11:29:09;;;;;;;2.87;2.43;;;22.70;39.60;;;;;;5080318;28;20428;-79
2021/10/20 11:31:39;;;;;;;3.10;2.20;;;22.80;39.40;;;;;;5080395;28;20411;-80
2021/10/20 11:34:17;;;;;;;2.83;2.50;;;22.70;39.60;;;;;;5080295;28;20480;-80
2021/10/20 11:36:44;;;;;;;2.87;2.67;;;22.50;39.80;;;;;;5067863;28;20491;-79
2021/10/20 11:39:11;;;;;;;3.13;2.83;;;22.40;40.10;;;;;;5064945;28;20434;-79
2021/10/20 11:41:38;;;;;;;3.03;2.73;;;22.30;40.90;;;;;;5062017;28;20913;-79
2021/10/20 11:44:05;;;;;;;2.80;2.30;;;22.20;40.90;;;;;;5060604;28;20427;-78
2021/10/20 11:46:34;;;;;;;3.43;2.83;;;22.20;40.90;;;;;;5060697;28;20467;-79
2021/10/20 11:49:03;;;;;;;3.67;2.60;;;22.00;40.70;;;;;;5063735;28;20427;-79
2021/10/20 11:51:32;;;;;;;3.40;2.50;;;21.90;40.60;;;;;;5073172;28;20464;-78
2021/10/20 11:54:04;;;;;;;5.00;2.50;;;21.70;40.40;;;;;;5074223;28;20491;-79
2021/10/20 11:56:32;;;;;;;4.87;2.40;;;21.60;40.30;;;;;;5062014;28;20473;-79
2021/10/20 11:58:59;;;;;;;3.90;2.70;;;21.40;40.10;;;;;;5065199;28;20452;-80
2021/10/20 12:01:26;;;;;;;4.30;2.73;;;21.30;41.50;;;;;;5064992;28;20552;-79
2021/10/20 12:03:52;;;;;;;2.83;2.60;;;21.20;41.60;;;;;;5064707;28;20460;-79
2021/10/20 12:06:22;;;;;;;4.90;2.90;;;21.10;41.90;;;;;;5062832;28;20502;-79
2021/10/20 12:08:53;;;;;;;11.10;2.70;;;21.10;41.90;;;;;;5060571;28;20455;-78
2021/10/20 12:11:21;;;;;;;2.73;2.53;;;21.00;42.00;;;;;;5062728;28;20445;-78
2021/10/20 12:13:49;;;;;;;4.70;2.63;;;20.90;42.10;;;;;;5061037;28;20524;-80
2021/10/20 12:16:19;;;;;;;3.93;2.97;;;20.90;42.40;;;;;;5068109;28;20516;-78
2021/10/20 12:18:47;;;;;;;2.90;2.70;;;20.90;42.70;;;;;;5073644;28;20487;-79
2021/10/20 12:21:15;;;;;;;4.30;2.80;;;20.90;42.70;;;;;;5076334;28;20479;-79
2021/10/20 12:23:46;;;;;;;3.33;2.73;;;20.90;42.80;;;;;;5071616;28;20416;-79
2021/10/20 12:26:13;;;;;;;3.40;2.87;;;20.80;42.90;;;;;;5069250;28;20463;-78
2021/10/20 12:28:41;;;;;;;4.13;2.70;;;20.70;43.00;;;;;;5069298;28;20451;-79
2021/10/20 12:31:09;;;;;;;3.20;2.90;;;20.60;43.30;;;;;;5071040;28;20424;-80
2021/10/20 12:33:39;;;;;;;4.67;3.00;;;20.60;43.90;;;;;;5074075;28;20492;-78
2021/10/20 12:36:07;;;;;;;5.53;3.43;;;20.70;43.80;;;;;;5070852;28;20517;-78
2021/10/20 12:38:35;;;;;;;3.83;2.70;;;20.80;43.50;;;;;;5070814;28;20450;-78
2021/10/20 12:41:10;;;;;;;6.33;2.87;;;20.90;42.80;;;;;;5071637;28;20464;-78
2021/10/20 12:43:37;;;;;;;2.70;2.50;;;21.00;42.70;;;;;;5073349;28;20486;-79
2021/10/20 12:46:05;;;;;;;3.33;2.33;;;21.00;42.90;;;;;;5075833;28;20457;-78
2021/10/20 12:48:34;;;;;;;2.80;2.60;;;20.90;43.10;;;;;;5077014;28;20469;-78
2021/10/20 12:51:10;;;;;;;3.13;2.93;;;20.90;43.30;;;;;;5075741;28;20449;-78
2021/10/20 12:53:42;;;;;;;8.63;3.10;;;20.80;43.30;;;;;;5076260;28;20480;-78
2021/10/20 12:56:11;;;;;;;7.80;2.80;;;20.80;43.70;;;;;;5073059;28;20525;-79
2021/10/20 12:58:39;;;;;;;4.20;3.10;;;20.80;43.40;;;;;;5073751;28;20481;-80